createdAt,value
2018-12-27T00:00:15.695Z,20
2018-12-27T00:00:40.272Z,19.94
2018-12-27T00:01:05.843Z,20.03
2018-12-27T00:01:31.443Z,19.97
2018-12-27T00:01:57.057Z,19.95
2018-12-27T00:02:22.643Z,20
2018-12-27T00:02:54.809Z,19.94
2018-12-27T00:03:13.776Z,19.94
2018-12-27T00:03:39.341Z,19.94
2018-12-27T00:04:04.920Z,19.93
2018-12-27T00:04:30.502Z,19.91
2018-12-27T00:04:56.073Z,19.98
2018-12-27T00:05:21.640Z,19.94
2018-12-27T00:05:47.226Z,19.95
2018-12-27T00:06:12.791Z,19.94
2018-12-27T00:06:38.378Z,19.93
2018-12-27T00:07:03.955Z,20
2018-12-27T00:07:29.547Z,19.98
2018-12-27T00:07:55.113Z,19.94
2018-12-27T00:08:20.695Z,19.97
2018-12-27T00:08:46.305Z,19.97
2018-12-27T00:09:11.914Z,19.97
2018-12-27T00:09:37.515Z,19.98
2018-12-27T00:10:03.079Z,19.95
2018-12-27T00:10:28.654Z,19.97
2018-12-27T00:10:54.246Z,20.02
2018-12-27T00:11:19.829Z,19.93
2018-12-27T00:11:45.480Z,20.03
2018-12-27T00:12:10.975Z,19.94
2018-12-27T00:12:36.608Z,19.95
2018-12-27T00:13:02.179Z,19.93
2018-12-27T00:13:27.751Z,19.98
2018-12-27T00:13:53.297Z,20
2018-12-27T00:14:18.877Z,20.02
2018-12-27T00:14:44.448Z,19.97
2018-12-27T00:15:10.025Z,20.02
2018-12-27T00:15:35.583Z,20
2018-12-27T00:16:01.168Z,20
2018-12-27T00:16:26.741Z,20
2018-12-27T00:16:52.301Z,19.95
2018-12-27T00:17:17.905Z,20
2018-12-27T00:17:43.491Z,19.97
2018-12-27T00:18:09.071Z,19.98
2018-12-27T00:18:34.663Z,19.91
2018-12-27T00:19:00.233Z,19.97
2018-12-27T00:19:25.794Z,19.98
2018-12-27T00:19:51.369Z,19.97
2018-12-27T00:20:16.949Z,19.94
2018-12-27T00:20:42.522Z,20
2018-12-27T00:21:08.121Z,19.95
2018-12-27T00:21:33.696Z,20
2018-12-27T00:21:59.284Z,19.95
2018-12-27T00:22:24.853Z,19.95
2018-12-27T00:22:50.419Z,19.95
2018-12-27T00:23:15.993Z,20
2018-12-27T00:23:41.586Z,19.9
2018-12-27T00:24:07.149Z,19.95
2018-12-27T00:24:32.725Z,19.95
2018-12-27T00:24:58.292Z,19.91
2018-12-27T00:25:23.875Z,19.94
2018-12-27T00:25:49.453Z,19.97
2018-12-27T00:26:15.030Z,19.93
2018-12-27T00:26:40.591Z,19.98
2018-12-27T00:27:06.169Z,19.91
2018-12-27T00:27:31.751Z,19.97
2018-12-27T00:27:57.320Z,19.97
2018-12-27T00:28:22.899Z,20
2018-12-27T00:28:48.481Z,19.95
2018-12-27T00:29:14.062Z,20
2018-12-27T00:29:39.633Z,20
2018-12-27T00:30:05.187Z,19.94
2018-12-27T00:30:30.775Z,19.95
2018-12-27T00:30:56.362Z,19.93
2018-12-27T00:31:21.919Z,20
2018-12-27T00:31:47.501Z,19.98
2018-12-27T00:32:13.097Z,19.95
2018-12-27T00:32:38.679Z,19.94
2018-12-27T00:33:04.290Z,19.91
2018-12-27T00:33:29.860Z,19.91
2018-12-27T00:33:55.457Z,19.94
2018-12-27T00:34:21.039Z,19.86
2018-12-27T00:34:46.607Z,19.9
2018-12-27T00:35:12.171Z,19.9
2018-12-27T00:35:37.720Z,19.91
2018-12-27T00:36:03.314Z,19.95
2018-12-27T00:36:28.887Z,19.97
2018-12-27T00:36:54.469Z,19.91
2018-12-27T00:37:20.059Z,19.93
2018-12-27T00:37:45.634Z,19.93
2018-12-27T00:38:11.193Z,19.91
2018-12-27T00:38:36.807Z,19.91
2018-12-27T00:39:02.387Z,19.9
2018-12-27T00:39:27.985Z,19.94
2018-12-27T00:39:53.563Z,19.91
2018-12-27T00:40:19.138Z,19.91
2018-12-27T00:40:44.705Z,19.97
2018-12-27T00:41:10.265Z,19.91
2018-12-27T00:41:35.865Z,19.97
2018-12-27T00:42:01.431Z,19.94
2018-12-27T00:42:26.981Z,19.94
2018-12-27T00:42:52.543Z,19.91
2018-12-27T00:43:18.143Z,19.91
2018-12-27T00:43:43.762Z,19.88
2018-12-27T00:44:09.296Z,19.91
2018-12-27T00:44:34.869Z,19.91
2018-12-27T00:45:00.446Z,19.93
2018-12-27T00:45:26.031Z,19.91
2018-12-27T00:45:51.617Z,19.94
2018-12-27T00:46:17.193Z,19.9
2018-12-27T00:46:42.757Z,19.88
2018-12-27T00:47:08.327Z,19.88
2018-12-27T00:47:33.878Z,19.86
2018-12-27T00:47:59.470Z,19.88
2018-12-27T00:48:25.051Z,19.91
2018-12-27T00:48:50.600Z,19.87
2018-12-27T00:49:16.175Z,19.93
2018-12-27T00:49:41.746Z,19.94
2018-12-27T00:50:07.318Z,19.93
2018-12-27T00:50:32.887Z,19.93
2018-12-27T00:50:58.469Z,19.9
2018-12-27T00:51:24.035Z,19.91
2018-12-27T00:51:49.595Z,19.84
2018-12-27T00:52:15.178Z,19.93
2018-12-27T00:52:40.744Z,19.83
2018-12-27T00:53:06.306Z,19.93
2018-12-27T00:53:31.870Z,19.91
2018-12-27T00:53:57.469Z,19.9
2018-12-27T00:54:23.057Z,19.95
2018-12-27T00:54:48.651Z,19.87
2018-12-27T00:55:14.235Z,19.88
2018-12-27T00:55:39.789Z,19.95
2018-12-27T00:56:05.379Z,19.88
2018-12-27T00:56:30.955Z,19.93
2018-12-27T00:56:56.523Z,19.79
2018-12-27T00:57:22.097Z,19.91
2018-12-27T00:57:47.676Z,19.91
2018-12-27T00:58:13.280Z,19.9
2018-12-27T00:58:38.848Z,19.94
2018-12-27T00:59:04.413Z,19.93
2018-12-27T00:59:29.987Z,19.91
2018-12-27T00:59:55.564Z,19.91
2018-12-27T01:00:21.138Z,19.9
2018-12-27T01:00:46.715Z,19.93
2018-12-27T01:01:12.335Z,19.9
2018-12-27T01:01:37.901Z,19.87
2018-12-27T01:02:03.474Z,19.79
2018-12-27T01:02:29.061Z,19.91
2018-12-27T01:02:54.643Z,19.87
2018-12-27T01:03:20.216Z,19.9
2018-12-27T01:03:45.791Z,19.93
2018-12-27T01:04:11.363Z,19.91
2018-12-27T01:04:36.947Z,19.78
2018-12-27T01:05:02.533Z,19.91
2018-12-27T01:05:28.099Z,19.79
2018-12-27T01:05:53.665Z,19.8
2018-12-27T01:06:19.227Z,19.87
2018-12-27T01:06:44.786Z,19.79
2018-12-27T01:07:10.366Z,19.87
2018-12-27T01:07:35.917Z,19.9
2018-12-27T01:08:01.485Z,19.79
2018-12-27T01:08:27.079Z,19.9
2018-12-27T01:08:52.648Z,19.79
2018-12-27T01:09:18.207Z,19.88
2018-12-27T01:09:43.775Z,19.75
2018-12-27T01:10:09.362Z,19.9
2018-12-27T01:10:34.939Z,19.86
2018-12-27T01:11:00.505Z,19.86
2018-12-27T01:11:26.081Z,19.9
2018-12-27T01:11:51.665Z,19.84
2018-12-27T01:12:17.235Z,19.78
2018-12-27T01:12:42.791Z,19.88
2018-12-27T01:13:08.373Z,19.93
2018-12-27T01:13:33.933Z,19.84
2018-12-27T01:13:59.509Z,19.84
2018-12-27T01:14:25.091Z,19.88
2018-12-27T01:14:50.671Z,19.83
2018-12-27T01:15:16.260Z,19.83
2018-12-27T01:15:41.817Z,19.91
2018-12-27T01:16:07.383Z,19.79
2018-12-27T01:16:32.999Z,19.87
2018-12-27T01:16:58.569Z,19.91
2018-12-27T01:17:24.139Z,19.79
2018-12-27T01:17:49.722Z,19.84
2018-12-27T01:18:15.295Z,19.8
2018-12-27T01:18:40.871Z,19.84
2018-12-27T01:19:06.447Z,19.84
2018-12-27T01:19:32.044Z,19.84
2018-12-27T01:19:57.621Z,19.86
2018-12-27T01:20:23.180Z,19.83
2018-12-27T01:20:48.776Z,19.84
2018-12-27T01:21:14.342Z,19.86
2018-12-27T01:21:39.922Z,19.86
2018-12-27T01:22:05.490Z,19.84
2018-12-27T01:22:31.052Z,19.84
2018-12-27T01:22:56.637Z,19.75
2018-12-27T01:23:22.187Z,19.84
2018-12-27T01:23:47.763Z,19.83
2018-12-27T01:24:13.343Z,19.79
2018-12-27T01:24:38.906Z,19.8
2018-12-27T01:25:04.470Z,19.83
2018-12-27T01:25:30.034Z,19.87
2018-12-27T01:25:55.597Z,19.87
2018-12-27T01:26:21.187Z,19.91
2018-12-27T01:26:46.736Z,19.86
2018-12-27T01:27:12.292Z,19.86
2018-12-27T01:27:37.875Z,19.76
2018-12-27T01:28:03.449Z,19.76
2018-12-27T01:28:29.016Z,19.79
2018-12-27T01:28:54.601Z,19.9
2018-12-27T01:29:20.176Z,19.8
2018-12-27T01:29:45.768Z,19.8
2018-12-27T01:30:11.329Z,19.83
2018-12-27T01:30:36.912Z,19.79
2018-12-27T01:31:02.480Z,19.79
2018-12-27T01:31:28.068Z,19.83
2018-12-27T01:31:53.625Z,19.79
2018-12-27T01:32:19.218Z,19.86
2018-12-27T01:32:44.790Z,19.83
2018-12-27T01:33:10.382Z,19.86
2018-12-27T01:33:35.928Z,19.75
2018-12-27T01:34:01.479Z,19.8
2018-12-27T01:34:27.087Z,19.8
2018-12-27T01:34:52.652Z,19.83
2018-12-27T01:35:18.243Z,19.76
2018-12-27T01:35:43.839Z,19.86
2018-12-27T01:36:09.454Z,19.76
2018-12-27T01:36:35.014Z,19.78
2018-12-27T01:37:00.604Z,19.79
2018-12-27T01:37:26.278Z,19.9
2018-12-27T01:37:51.731Z,19.87
2018-12-27T01:38:17.312Z,19.8
2018-12-27T01:38:42.882Z,19.84
2018-12-27T01:39:08.450Z,19.83
2018-12-27T01:39:34.026Z,19.84
2018-12-27T01:39:59.598Z,19.87
2018-12-27T01:40:25.150Z,19.83
2018-12-27T01:40:50.704Z,19.83
2018-12-27T01:41:16.283Z,19.84
2018-12-27T01:41:41.848Z,19.88
2018-12-27T01:42:07.427Z,19.78
2018-12-27T01:42:33.008Z,19.78
2018-12-27T01:42:58.615Z,19.86
2018-12-27T01:43:24.142Z,19.79
2018-12-27T01:43:49.697Z,19.79
2018-12-27T01:44:15.269Z,19.79
2018-12-27T01:44:40.834Z,19.79
2018-12-27T01:45:06.382Z,19.86
2018-12-27T01:45:31.946Z,19.79
2018-12-27T01:45:57.523Z,19.87
2018-12-27T01:46:23.074Z,19.87
2018-12-27T01:46:48.664Z,19.86
2018-12-27T01:47:14.246Z,19.88
2018-12-27T01:47:39.804Z,19.8
2018-12-27T01:48:05.406Z,19.86
2018-12-27T01:48:30.996Z,19.8
2018-12-27T01:48:56.584Z,19.87
2018-12-27T01:49:22.170Z,19.83
2018-12-27T01:49:47.728Z,19.91
2018-12-27T01:50:13.310Z,19.8
2018-12-27T01:50:38.883Z,19.87
2018-12-27T01:51:04.449Z,19.88
2018-12-27T01:51:30.012Z,19.8
2018-12-27T01:51:55.588Z,19.86
2018-12-27T01:52:21.162Z,19.83
2018-12-27T01:52:46.722Z,19.79
2018-12-27T01:53:12.340Z,19.8
2018-12-27T01:53:37.908Z,19.86
2018-12-27T01:54:03.468Z,19.83
2018-12-27T01:54:29.025Z,19.8
2018-12-27T01:54:54.594Z,19.78
2018-12-27T01:55:20.166Z,19.83
2018-12-27T01:55:45.737Z,19.87
2018-12-27T01:56:11.308Z,19.78
2018-12-27T01:56:36.900Z,19.79
2018-12-27T01:57:02.460Z,19.78
2018-12-27T01:57:28.044Z,19.86
2018-12-27T01:57:53.612Z,19.76
2018-12-27T01:58:19.189Z,19.86
2018-12-27T01:58:44.760Z,19.86
2018-12-27T01:59:10.316Z,19.87
2018-12-27T01:59:35.996Z,19.84
2018-12-27T02:00:01.562Z,19.87
2018-12-27T02:00:27.156Z,19.87
2018-12-27T02:00:52.718Z,19.87
2018-12-27T02:01:18.302Z,19.79
2018-12-27T02:01:43.880Z,19.78
2018-12-27T02:02:09.454Z,19.83
2018-12-27T02:02:35.029Z,19.86
2018-12-27T02:03:00.606Z,19.87
2018-12-27T02:03:26.512Z,19.8
2018-12-27T02:03:51.750Z,19.73
2018-12-27T02:04:17.333Z,19.75
2018-12-27T02:04:42.890Z,19.8
2018-12-27T02:05:08.446Z,19.86
2018-12-27T02:05:34.009Z,19.83
2018-12-27T02:05:59.598Z,19.8
2018-12-27T02:06:25.171Z,19.78
2018-12-27T02:06:50.762Z,19.8
2018-12-27T02:07:16.312Z,19.8
2018-12-27T02:07:41.892Z,19.8
2018-12-27T02:08:07.559Z,19.79
2018-12-27T02:08:33.081Z,19.83
2018-12-27T02:08:58.656Z,19.79
2018-12-27T02:09:24.232Z,19.83
2018-12-27T02:09:49.798Z,19.83
2018-12-27T02:10:15.368Z,19.8
2018-12-27T02:10:40.944Z,19.79
2018-12-27T02:11:06.527Z,19.84
2018-12-27T02:11:32.102Z,19.84
2018-12-27T02:11:57.674Z,19.8
2018-12-27T02:12:23.229Z,19.83
2018-12-27T02:12:48.918Z,19.76
2018-12-27T02:13:14.484Z,19.8
2018-12-27T02:13:40.066Z,19.8
2018-12-27T02:14:05.630Z,19.87
2018-12-27T02:14:31.197Z,19.83
2018-12-27T02:14:56.779Z,19.84
2018-12-27T02:15:22.345Z,19.79
2018-12-27T02:15:47.912Z,19.75
2018-12-27T02:16:13.471Z,19.79
2018-12-27T02:16:39.049Z,19.84
2018-12-27T02:17:04.622Z,19.8
2018-12-27T02:17:30.186Z,19.78
2018-12-27T02:17:55.765Z,19.79
2018-12-27T02:18:21.339Z,19.75
2018-12-27T02:18:46.936Z,19.79
2018-12-27T02:19:12.498Z,19.84
2018-12-27T02:19:38.076Z,19.8
2018-12-27T02:20:03.612Z,19.79
2018-12-27T02:20:29.181Z,19.78
2018-12-27T02:20:54.750Z,19.75
2018-12-27T02:21:20.318Z,19.75
2018-12-27T02:21:45.894Z,19.8
2018-12-27T02:22:11.460Z,19.79
2018-12-27T02:22:37.039Z,19.8
2018-12-27T02:23:02.596Z,19.83
2018-12-27T02:23:28.153Z,19.75
2018-12-27T02:23:53.712Z,19.8
2018-12-27T02:24:19.296Z,19.8
2018-12-27T02:24:44.868Z,19.76
2018-12-27T02:25:10.449Z,19.76
2018-12-27T02:25:36.019Z,19.83
2018-12-27T02:26:01.610Z,19.8
2018-12-27T02:26:27.202Z,19.76
2018-12-27T02:26:52.769Z,19.8
2018-12-27T02:27:18.349Z,19.79
2018-12-27T02:27:43.933Z,19.79
2018-12-27T02:28:09.497Z,19.76
2018-12-27T02:28:35.060Z,19.8
2018-12-27T02:29:00.634Z,19.76
2018-12-27T02:29:26.191Z,19.75
2018-12-27T02:29:51.761Z,19.78
2018-12-27T02:30:17.319Z,19.8
2018-12-27T02:30:42.880Z,19.78
2018-12-27T02:31:08.448Z,19.73
2018-12-27T02:31:34.028Z,19.68
2018-12-27T02:31:59.594Z,19.78
2018-12-27T02:32:25.148Z,19.72
2018-12-27T02:32:50.746Z,19.8
2018-12-27T02:33:16.319Z,19.78
2018-12-27T02:33:41.885Z,19.78
2018-12-27T02:34:07.456Z,19.72
2018-12-27T02:34:33.056Z,19.72
2018-12-27T02:34:58.638Z,19.78
2018-12-27T02:35:24.198Z,19.78
2018-12-27T02:35:49.780Z,19.75
2018-12-27T02:36:15.357Z,19.78
2018-12-27T02:36:40.917Z,19.75
2018-12-27T02:37:06.499Z,19.78
2018-12-27T02:37:32.131Z,19.72
2018-12-27T02:37:57.644Z,19.75
2018-12-27T02:38:23.233Z,19.79
2018-12-27T02:38:48.800Z,19.65
2018-12-27T02:39:14.367Z,19.73
2018-12-27T02:39:40.130Z,19.76
2018-12-27T02:40:05.491Z,19.8
2018-12-27T02:40:31.052Z,19.73
2018-12-27T02:40:56.630Z,19.66
2018-12-27T02:41:22.215Z,19.78
2018-12-27T02:41:47.799Z,19.78
2018-12-27T02:42:13.358Z,19.75
2018-12-27T02:42:38.914Z,19.76
2018-12-27T02:43:04.493Z,19.68
2018-12-27T02:43:30.060Z,19.8
2018-12-27T02:43:55.609Z,19.79
2018-12-27T02:44:21.192Z,19.76
2018-12-27T02:44:46.739Z,19.68
2018-12-27T02:45:12.365Z,19.7
2018-12-27T02:45:37.958Z,19.73
2018-12-27T02:46:03.518Z,19.73
2018-12-27T02:46:29.089Z,19.72
2018-12-27T02:46:54.681Z,19.78
2018-12-27T02:47:20.249Z,19.78
2018-12-27T02:47:45.832Z,19.65
2018-12-27T02:48:11.393Z,19.8
2018-12-27T02:48:36.966Z,19.72
2018-12-27T02:49:02.537Z,19.69
2018-12-27T02:49:28.108Z,19.79
2018-12-27T02:49:53.685Z,19.69
2018-12-27T02:50:19.293Z,19.75
2018-12-27T02:50:44.867Z,19.76
2018-12-27T02:51:10.432Z,19.78
2018-12-27T02:51:36.005Z,19.66
2018-12-27T02:52:01.576Z,19.76
2018-12-27T02:52:27.194Z,19.66
2018-12-27T02:52:52.753Z,19.78
2018-12-27T02:53:18.326Z,19.76
2018-12-27T02:53:43.891Z,19.79
2018-12-27T02:54:09.464Z,19.66
2018-12-27T02:54:35.034Z,19.61
2018-12-27T02:55:00.587Z,19.66
2018-12-27T02:55:26.193Z,19.68
2018-12-27T02:55:51.764Z,19.73
2018-12-27T02:56:17.352Z,19.69
2018-12-27T02:56:42.926Z,19.76
2018-12-27T02:57:08.608Z,19.76
2018-12-27T02:57:34.095Z,19.75
2018-12-27T02:57:59.653Z,19.72
2018-12-27T02:58:25.229Z,19.63
2018-12-27T02:58:50.788Z,19.66
2018-12-27T02:59:16.348Z,19.79
2018-12-27T02:59:41.938Z,19.66
2018-12-27T03:00:07.489Z,19.69
2018-12-27T03:00:33.055Z,19.7
2018-12-27T03:00:58.621Z,19.68
2018-12-27T03:01:24.187Z,19.76
2018-12-27T03:01:49.762Z,19.75
2018-12-27T03:02:15.342Z,19.84
2018-12-27T03:02:40.920Z,19.66
2018-12-27T03:03:06.496Z,19.68
2018-12-27T03:03:32.069Z,19.69
2018-12-27T03:03:57.665Z,19.66
2018-12-27T03:04:23.216Z,19.75
2018-12-27T03:04:48.802Z,19.72
2018-12-27T03:05:14.354Z,19.65
2018-12-27T03:05:39.936Z,19.68
2018-12-27T03:06:05.495Z,19.76
2018-12-27T03:06:31.052Z,19.76
2018-12-27T03:06:56.621Z,19.78
2018-12-27T03:07:22.189Z,19.78
2018-12-27T03:07:47.770Z,19.68
2018-12-27T03:08:13.349Z,19.76
2018-12-27T03:08:38.938Z,19.7
2018-12-27T03:09:04.515Z,19.66
2018-12-27T03:09:30.090Z,19.69
2018-12-27T03:09:55.663Z,19.68
2018-12-27T03:10:21.236Z,19.69
2018-12-27T03:10:46.785Z,19.68
2018-12-27T03:11:12.359Z,19.7
2018-12-27T03:11:37.920Z,19.66
2018-12-27T03:12:03.493Z,19.66
2018-12-27T03:12:29.059Z,19.66
2018-12-27T03:12:54.627Z,19.65
2018-12-27T03:13:20.182Z,19.66
2018-12-27T03:13:45.749Z,19.69
2018-12-27T03:14:11.323Z,19.65
2018-12-27T03:14:36.907Z,19.83
2018-12-27T03:15:02.450Z,19.76
2018-12-27T03:15:28.027Z,19.73
2018-12-27T03:15:53.611Z,19.66
2018-12-27T03:16:19.179Z,19.68
2018-12-27T03:16:44.735Z,19.69
2018-12-27T03:17:10.295Z,19.7
2018-12-27T03:17:35.872Z,19.66
2018-12-27T03:18:01.510Z,19.7
2018-12-27T03:18:27.069Z,19.68
2018-12-27T03:18:52.663Z,19.66
2018-12-27T03:19:18.226Z,19.66
2018-12-27T03:19:43.798Z,19.69
2018-12-27T03:20:09.362Z,19.69
2018-12-27T03:20:34.944Z,19.69
2018-12-27T03:21:00.497Z,19.66
2018-12-27T03:21:26.053Z,19.68
2018-12-27T03:21:51.634Z,19.65
2018-12-27T03:22:17.197Z,19.65
2018-12-27T03:22:42.764Z,19.73
2018-12-27T03:23:08.335Z,19.63
2018-12-27T03:23:33.900Z,19.7
2018-12-27T03:23:59.472Z,19.65
2018-12-27T03:24:25.016Z,19.69
2018-12-27T03:24:50.576Z,19.69
2018-12-27T03:25:16.180Z,19.66
2018-12-27T03:25:41.799Z,19.65
2018-12-27T03:26:07.366Z,19.63
2018-12-27T03:26:32.927Z,19.69
2018-12-27T03:26:58.501Z,19.69
2018-12-27T03:27:24.083Z,19.66
2018-12-27T03:27:49.648Z,19.65
2018-12-27T03:28:15.208Z,19.68
2018-12-27T03:28:40.780Z,19.66
2018-12-27T03:29:06.336Z,19.68
2018-12-27T03:29:31.908Z,19.66
2018-12-27T03:29:57.588Z,19.7
2018-12-27T03:30:23.070Z,19.69
2018-12-27T03:30:48.653Z,19.65
2018-12-27T03:31:14.213Z,19.66
2018-12-27T03:31:39.839Z,19.7
2018-12-27T03:32:05.427Z,19.66
2018-12-27T03:32:30.985Z,19.69
2018-12-27T03:32:56.554Z,19.68
2018-12-27T03:33:22.106Z,19.68
2018-12-27T03:33:52.580Z,19.68
2018-12-27T03:34:13.278Z,19.73
2018-12-27T03:34:38.850Z,19.66
2018-12-27T03:35:04.412Z,19.66
2018-12-27T03:35:29.973Z,19.66
2018-12-27T03:35:55.560Z,19.72
2018-12-27T03:36:21.116Z,19.68
2018-12-27T03:36:46.683Z,19.72
2018-12-27T03:37:12.278Z,19.65
2018-12-27T03:37:37.858Z,19.75
2018-12-27T03:38:03.441Z,19.73
2018-12-27T03:38:28.991Z,19.75
2018-12-27T03:38:54.555Z,19.7
2018-12-27T03:39:20.112Z,19.75
2018-12-27T03:39:45.671Z,19.68
2018-12-27T03:40:11.237Z,19.63
2018-12-27T03:40:36.797Z,19.68
2018-12-27T03:41:02.368Z,19.65
2018-12-27T03:41:27.942Z,19.69
2018-12-27T03:41:53.504Z,19.73
2018-12-27T03:42:19.072Z,19.65
2018-12-27T03:42:44.678Z,19.7
2018-12-27T03:43:10.268Z,19.68
2018-12-27T03:43:35.857Z,19.66
2018-12-27T03:44:01.408Z,19.68
2018-12-27T03:44:26.984Z,19.61
2018-12-27T03:44:52.553Z,19.7
2018-12-27T03:45:18.170Z,19.65
2018-12-27T03:45:43.754Z,19.65
2018-12-27T03:46:09.342Z,19.7
2018-12-27T03:46:34.900Z,19.75
2018-12-27T03:47:00.470Z,19.66
2018-12-27T03:47:26.067Z,19.66
2018-12-27T03:47:51.643Z,19.66
2018-12-27T03:48:17.231Z,19.66
2018-12-27T03:48:42.803Z,19.66
2018-12-27T03:49:08.376Z,19.66
2018-12-27T03:49:33.931Z,19.66
2018-12-27T03:49:59.478Z,19.68
2018-12-27T03:50:25.042Z,19.65
2018-12-27T03:50:50.602Z,19.75
2018-12-27T03:51:16.172Z,19.68
2018-12-27T03:51:41.789Z,19.69
2018-12-27T03:52:07.358Z,19.73
2018-12-27T03:52:32.946Z,19.66
2018-12-27T03:52:58.515Z,19.78
2018-12-27T03:53:24.082Z,19.61
2018-12-27T03:53:49.664Z,19.63
2018-12-27T03:54:15.236Z,19.73
2018-12-27T03:54:40.798Z,19.68
2018-12-27T03:55:06.360Z,19.66
2018-12-27T03:55:31.923Z,19.68
2018-12-27T03:55:57.491Z,19.65
2018-12-27T03:56:23.070Z,19.69
2018-12-27T03:56:48.621Z,19.72
2018-12-27T03:57:14.189Z,19.7
2018-12-27T03:57:39.772Z,19.65
2018-12-27T03:58:05.350Z,19.75
2018-12-27T03:58:30.963Z,19.7
2018-12-27T03:58:56.495Z,19.66
2018-12-27T03:59:22.064Z,19.65
2018-12-27T03:59:47.643Z,19.72
2018-12-27T04:00:13.206Z,19.63
2018-12-27T04:00:38.829Z,19.69
2018-12-27T04:01:04.403Z,19.66
2018-12-27T04:01:29.982Z,19.75
2018-12-27T04:01:55.560Z,19.73
2018-12-27T04:02:21.132Z,19.7
2018-12-27T04:02:46.706Z,19.68
2018-12-27T04:03:12.290Z,19.69
2018-12-27T04:03:37.860Z,19.73
2018-12-27T04:04:03.437Z,19.65
2018-12-27T04:04:29.004Z,19.66
2018-12-27T04:04:54.570Z,19.72
2018-12-27T04:05:20.153Z,19.63
2018-12-27T04:05:45.755Z,19.63
2018-12-27T04:06:11.305Z,19.66
2018-12-27T04:06:36.888Z,19.68
2018-12-27T04:07:02.470Z,19.72
2018-12-27T04:07:28.053Z,19.63
2018-12-27T04:07:53.633Z,19.73
2018-12-27T04:08:19.188Z,19.69
2018-12-27T04:08:44.775Z,19.69
2018-12-27T04:09:10.328Z,19.66
2018-12-27T04:09:35.913Z,19.69
2018-12-27T04:10:01.474Z,19.73
2018-12-27T04:10:27.028Z,19.72
2018-12-27T04:10:52.602Z,19.68
2018-12-27T04:11:18.155Z,19.75
2018-12-27T04:11:43.720Z,19.69
2018-12-27T04:12:09.296Z,19.65
2018-12-27T04:12:34.871Z,19.7
2018-12-27T04:13:00.450Z,19.69
2018-12-27T04:13:26.019Z,19.73
2018-12-27T04:13:51.590Z,19.61
2018-12-27T04:14:17.167Z,19.65
2018-12-27T04:14:42.742Z,19.66
2018-12-27T04:15:08.322Z,19.55
2018-12-27T04:15:33.894Z,19.73
2018-12-27T04:15:59.452Z,19.68
2018-12-27T04:16:25.038Z,19.69
2018-12-27T04:16:50.583Z,19.7
2018-12-27T04:17:16.144Z,19.68
2018-12-27T04:17:41.715Z,19.75
2018-12-27T04:18:07.275Z,19.75
2018-12-27T04:18:32.866Z,19.73
2018-12-27T04:18:58.393Z,19.57
2018-12-27T04:19:24.004Z,19.69
2018-12-27T04:19:49.549Z,19.75
2018-12-27T04:20:15.231Z,19.61
2018-12-27T04:20:40.701Z,19.7
2018-12-27T04:21:06.275Z,19.65
2018-12-27T04:21:31.846Z,19.7
2018-12-27T04:21:57.416Z,19.68
2018-12-27T04:22:22.982Z,19.6
2018-12-27T04:22:48.558Z,19.7
2018-12-27T04:23:14.111Z,19.72
2018-12-27T04:23:39.684Z,19.75
2018-12-27T04:24:05.241Z,19.54
2018-12-27T04:24:30.848Z,19.72
2018-12-27T04:24:56.427Z,19.66
2018-12-27T04:25:22.004Z,19.68
2018-12-27T04:25:47.574Z,19.69
2018-12-27T04:26:13.132Z,19.66
2018-12-27T04:26:38.719Z,19.72
2018-12-27T04:27:04.292Z,19.72
2018-12-27T04:27:29.854Z,19.69
2018-12-27T04:27:55.450Z,19.7
2018-12-27T04:28:21.017Z,19.6
2018-12-27T04:28:46.590Z,19.72
2018-12-27T04:29:12.164Z,19.68
2018-12-27T04:29:37.745Z,19.7
2018-12-27T04:30:03.308Z,19.68
2018-12-27T04:30:28.927Z,19.63
2018-12-27T04:30:54.505Z,19.66
2018-12-27T04:31:20.076Z,19.65
2018-12-27T04:31:45.659Z,19.78
2018-12-27T04:32:11.233Z,19.63
2018-12-27T04:32:36.897Z,19.55
2018-12-27T04:33:02.396Z,19.65
2018-12-27T04:33:27.947Z,19.7
2018-12-27T04:33:53.519Z,19.69
2018-12-27T04:34:19.098Z,19.69
2018-12-27T04:34:44.670Z,19.72
2018-12-27T04:35:10.254Z,19.73
2018-12-27T04:35:35.815Z,19.68
2018-12-27T04:36:01.391Z,19.66
2018-12-27T04:36:26.948Z,19.65
2018-12-27T04:36:52.523Z,19.66
2018-12-27T04:37:18.083Z,19.66
2018-12-27T04:37:43.653Z,19.66
2018-12-27T04:38:09.245Z,19.69
2018-12-27T04:38:34.806Z,19.7
2018-12-27T04:39:00.360Z,19.69
2018-12-27T04:39:25.931Z,19.66
2018-12-27T04:39:51.501Z,19.63
2018-12-27T04:40:17.074Z,19.69
2018-12-27T04:40:42.666Z,19.69
2018-12-27T04:41:08.236Z,19.66
2018-12-27T04:41:33.790Z,19.65
2018-12-27T04:41:59.369Z,19.7
2018-12-27T04:42:24.962Z,19.61
2018-12-27T04:42:50.505Z,19.76
2018-12-27T04:43:16.082Z,19.65
2018-12-27T04:43:41.666Z,19.6
2018-12-27T04:44:07.237Z,19.68
2018-12-27T04:44:32.807Z,19.68
2018-12-27T04:44:58.387Z,19.78
2018-12-27T04:45:23.967Z,19.78
2018-12-27T04:45:49.549Z,19.7
2018-12-27T04:46:15.124Z,19.84
2018-12-27T04:46:40.701Z,19.78
2018-12-27T04:47:06.274Z,19.75
2018-12-27T04:47:31.858Z,19.83
2018-12-27T04:47:57.427Z,19.78
2018-12-27T04:48:22.988Z,19.83
2018-12-27T04:48:48.588Z,19.86
2018-12-27T04:49:14.162Z,19.76
2018-12-27T04:49:39.751Z,19.8
2018-12-27T04:50:05.322Z,19.76
2018-12-27T04:50:30.898Z,19.84
2018-12-27T04:50:56.466Z,19.75
2018-12-27T04:51:22.025Z,19.86
2018-12-27T04:51:47.591Z,19.83
2018-12-27T04:52:13.150Z,19.79
2018-12-27T04:52:38.701Z,19.8
2018-12-27T04:53:04.282Z,19.79
2018-12-27T04:53:29.921Z,19.87
2018-12-27T04:53:55.414Z,19.86
2018-12-27T04:54:20.980Z,19.79
2018-12-27T04:54:46.549Z,19.83
2018-12-27T04:55:12.123Z,19.88
2018-12-27T04:55:37.690Z,19.9
2018-12-27T04:56:03.285Z,19.79
2018-12-27T04:56:28.832Z,19.79
2018-12-27T04:56:54.394Z,19.88
2018-12-27T04:57:19.984Z,19.84
2018-12-27T04:57:45.574Z,19.78
2018-12-27T04:58:11.161Z,19.8
2018-12-27T04:58:36.731Z,19.83
2018-12-27T04:59:02.287Z,19.86
2018-12-27T04:59:27.869Z,19.79
2018-12-27T04:59:53.428Z,19.88
2018-12-27T05:00:19.004Z,19.79
2018-12-27T05:00:44.574Z,19.91
2018-12-27T05:01:10.147Z,19.9
2018-12-27T05:01:35.720Z,19.84
2018-12-27T05:02:01.279Z,19.8
2018-12-27T05:02:26.856Z,19.9
2018-12-27T05:02:52.415Z,19.83
2018-12-27T05:03:18.000Z,19.83
2018-12-27T05:03:43.569Z,19.86
2018-12-27T05:04:09.113Z,19.87
2018-12-27T05:04:34.698Z,19.8
2018-12-27T05:05:00.285Z,19.86
2018-12-27T05:05:25.875Z,19.78
2018-12-27T05:05:51.463Z,19.83
2018-12-27T05:06:17.017Z,19.83
2018-12-27T05:06:42.582Z,19.84
2018-12-27T05:07:08.177Z,19.84
2018-12-27T05:07:33.733Z,19.86
2018-12-27T05:08:00.429Z,19.79
2018-12-27T05:08:24.900Z,19.83
2018-12-27T05:08:50.537Z,19.87
2018-12-27T05:09:16.057Z,19.83
2018-12-27T05:09:41.617Z,19.79
2018-12-27T05:10:07.181Z,19.83
2018-12-27T05:10:32.765Z,19.9
2018-12-27T05:10:58.335Z,19.86
2018-12-27T05:11:23.910Z,19.83
2018-12-27T05:11:49.486Z,19.8
2018-12-27T05:12:15.045Z,19.83
2018-12-27T05:12:40.616Z,19.86
2018-12-27T05:13:06.197Z,19.79
2018-12-27T05:13:31.828Z,19.86
2018-12-27T05:13:58.275Z,19.84
2018-12-27T05:14:22.973Z,19.84
2018-12-27T05:14:48.567Z,19.84
2018-12-27T05:15:14.117Z,19.86
2018-12-27T05:15:39.707Z,19.79
2018-12-27T05:16:05.309Z,19.87
2018-12-27T05:16:30.889Z,19.84
2018-12-27T05:16:56.447Z,19.84
2018-12-27T05:17:22.003Z,19.88
2018-12-27T05:17:47.603Z,19.87
2018-12-27T05:18:13.170Z,19.88
2018-12-27T05:18:38.741Z,19.8
2018-12-27T05:19:04.321Z,19.79
2018-12-27T05:19:29.889Z,19.9
2018-12-27T05:19:55.453Z,19.78
2018-12-27T05:20:21.039Z,19.91
2018-12-27T05:20:46.602Z,19.87
2018-12-27T05:21:12.161Z,19.88
2018-12-27T05:21:37.745Z,19.9
2018-12-27T05:22:03.321Z,19.83
2018-12-27T05:22:28.893Z,19.83
2018-12-27T05:22:54.478Z,19.83
2018-12-27T05:23:20.055Z,19.87
2018-12-27T05:23:45.618Z,19.78
2018-12-27T05:24:11.197Z,19.97
2018-12-27T05:24:36.767Z,19.84
2018-12-27T05:25:02.335Z,19.87
2018-12-27T05:25:27.921Z,19.87
2018-12-27T05:25:53.492Z,19.84
2018-12-27T05:26:19.069Z,19.78
2018-12-27T05:26:44.637Z,19.79
2018-12-27T05:27:10.239Z,19.86
2018-12-27T05:27:35.845Z,19.84
2018-12-27T05:28:01.371Z,19.88
2018-12-27T05:28:26.987Z,19.87
2018-12-27T05:28:52.573Z,19.83
2018-12-27T05:29:18.153Z,19.78
2018-12-27T05:29:43.714Z,19.84
2018-12-27T05:30:09.291Z,19.86
2018-12-27T05:30:34.874Z,19.84
2018-12-27T05:31:00.444Z,19.79
2018-12-27T05:31:26.016Z,19.83